createdAt,value
2023-04-02T00:01:44.352Z,2.87
2023-04-02T00:04:36.916Z,4.58
2023-04-02T00:07:33.054Z,2.58
2023-04-02T00:10:36.976Z,2.60
2023-04-02T00:13:38.605Z,2.42
2023-04-02T00:16:30.558Z,2.08
2023-04-02T00:19:27.021Z,1.50
2023-04-02T00:22:19.822Z,0.75
2023-04-02T00:25:15.509Z,2.92
2023-04-02T00:28:07.838Z,1.07
2023-04-02T00:31:01.722Z,0.90
2023-04-02T00:33:53.982Z,0.55
2023-04-02T00:36:47.594Z,1.02
2023-04-02T00:39:41.578Z,1.47
2023-04-02T00:42:33.645Z,2.12
2023-04-02T00:45:29.018Z,1.00
2023-04-02T00:51:04.856Z,2.85
2023-04-02T00:53:58.268Z,1.70
2023-04-02T00:56:52.443Z,2.27
2023-04-02T00:59:51.871Z,2.77
2023-04-02T01:02:43.409Z,1.72
2023-04-02T01:05:37.293Z,3.15
2023-04-02T01:08:34.236Z,2.70
2023-04-02T01:11:56.772Z,3.10
2023-04-02T01:17:59.316Z,2.30
2023-04-02T01:21:15.473Z,1.75
2023-04-02T01:24:09.488Z,1.50
2023-04-02T01:27:03.014Z,1.30
2023-04-02T01:29:57.873Z,1.60
2023-04-02T01:32:49.382Z,3.00
2023-04-02T01:35:43.652Z,2.20
2023-04-02T01:38:38.174Z,2.52
2023-04-02T01:41:32.526Z,2.83
2023-04-02T01:44:27.308Z,2.77
2023-04-02T01:47:21.882Z,2.80
2023-04-02T01:50:22.198Z,3.45
2023-04-02T01:53:16.564Z,3.22
2023-04-02T01:56:08.576Z,3.40
2023-04-02T01:59:01.568Z,3.00
2023-04-02T02:01:56.493Z,3.35
2023-04-02T02:04:48.271Z,3.27
2023-04-02T02:07:39.482Z,2.87
2023-04-02T02:10:36.432Z,3.70
2023-04-02T02:13:27.935Z,2.77
2023-04-02T02:16:20.621Z,3.00
2023-04-02T02:19:16.839Z,3.52
2023-04-02T02:22:13.503Z,2.25
2023-04-02T02:25:07.914Z,1.42
2023-04-02T02:28:04.625Z,1.60
2023-04-02T02:31:01.504Z,4.15
2023-04-02T02:33:55.209Z,0.88
2023-04-02T02:36:50.827Z,0.75
2023-04-02T02:39:45.609Z,0.50
2023-04-02T02:42:39.700Z,1.27
2023-04-02T02:45:35.488Z,0.68
2023-04-02T02:48:30.226Z,0.80
2023-04-02T02:51:24.679Z,0.50
2023-04-02T02:54:19.844Z,0.93
2023-04-02T02:57:14.588Z,1.42
2023-04-02T03:00:10.957Z,1.40
2023-04-02T03:03:04.227Z,2.00
2023-04-02T03:05:58.971Z,2.20
2023-04-02T03:08:54.945Z,2.12
2023-04-02T03:11:51.082Z,1.77
2023-04-02T03:14:47.490Z,1.95
2023-04-02T03:17:42.728Z,2.33
2023-04-02T03:20:38.334Z,2.10
2023-04-02T03:23:33.572Z,2.20
2023-04-02T03:26:28.960Z,1.87
2023-04-02T03:29:24.390Z,2.15
2023-04-02T03:32:19.081Z,2.00
2023-04-02T03:35:15.681Z,2.15
2023-04-02T03:38:10.651Z,2.22
2023-04-02T03:41:08.643Z,2.77
2023-04-02T03:44:03.784Z,3.83
2023-04-02T03:47:00.382Z,2.42
2023-04-02T03:49:55.268Z,3.15
2023-04-02T03:52:47.718Z,3.08
2023-04-02T03:55:41.970Z,3.12
2023-04-02T03:58:38.679Z,2.50
2023-04-02T04:01:32.947Z,2.87
2023-04-02T04:04:28.888Z,2.62
2023-04-02T04:07:26.353Z,2.83
2023-04-02T04:10:21.297Z,2.17
2023-04-02T04:13:16.401Z,2.52
2023-04-02T04:16:12.729Z,2.30
2023-04-02T04:19:08.218Z,2.95
2023-04-02T04:22:14.406Z,4.62
2023-04-02T04:25:08.759Z,3.15
2023-04-02T04:28:08.346Z,2.67
2023-04-02T04:31:06.877Z,3.25
2023-04-02T04:34:03.613Z,2.67
2023-04-02T04:37:00.805Z,2.65
2023-04-02T04:39:57.255Z,4.40
2023-04-02T04:42:51.456Z,3.17
2023-04-02T04:45:49.286Z,2.70
2023-04-02T04:48:47.113Z,2.70
2023-04-02T04:51:42.734Z,2.83
2023-04-02T04:54:35.530Z,3.83
2023-04-02T04:57:33.611Z,2.83
2023-04-02T05:00:28.976Z,3.15
2023-04-02T05:03:24.553Z,2.87
2023-04-02T05:06:19.458Z,3.08
2023-04-02T05:09:17.126Z,4.58
2023-04-02T05:12:14.455Z,3.58
2023-04-02T05:15:12.874Z,2.70
2023-04-02T05:18:12.318Z,2.25
2023-04-02T05:21:07.224Z,3.98
2023-04-02T05:26:44.804Z,3.75
2023-04-02T05:29:40.070Z,3.00
2023-04-02T05:35:20.832Z,3.12
2023-04-02T05:41:02.197Z,3.67
2023-04-02T05:43:58.446Z,3.70
2023-04-02T05:46:53.487Z,3.22
2023-04-02T05:49:49.693Z,3.10
2023-04-02T05:52:44.796Z,3.62
2023-04-02T05:55:44.672Z,3.25
2023-04-02T05:58:52.602Z,3.80
2023-04-02T06:01:48.116Z,4.33
2023-04-02T06:07:30.419Z,3.87
2023-04-02T06:10:26.159Z,3.87
2023-04-02T06:13:20.216Z,4.53
2023-04-02T06:16:14.792Z,4.15
2023-04-02T06:19:08.960Z,4.20
2023-04-02T06:22:11.162Z,3.98
2023-04-02T06:25:06.158Z,4.10
2023-04-02T06:28:01.970Z,4.58
2023-04-02T06:30:56.738Z,3.33
2023-04-02T06:33:50.610Z,3.40
2023-04-02T06:36:43.996Z,3.17
2023-04-02T06:39:35.799Z,3.00
2023-04-02T06:42:31.962Z,2.40
2023-04-02T06:45:27.970Z,2.42
2023-04-02T06:48:35.319Z,2.35
2023-04-02T06:51:29.307Z,2.42
2023-04-02T06:54:21.747Z,1.52
2023-04-02T06:57:16.133Z,3.00
2023-04-02T07:00:16.933Z,1.35
2023-04-02T07:03:10.819Z,2.05
2023-04-02T07:06:04.699Z,2.17
2023-04-02T07:08:57.509Z,2.27
2023-04-02T07:11:48.790Z,1.90
2023-04-02T07:14:41.704Z,2.12
2023-04-02T07:17:34.040Z,1.72
2023-04-02T07:20:30.098Z,2.15
2023-04-02T07:23:23.082Z,3.20
2023-04-02T07:26:17.993Z,2.75
2023-04-02T07:29:10.741Z,2.10
2023-04-02T07:32:01.518Z,2.50
2023-04-02T07:34:52.749Z,2.22
2023-04-02T07:40:27.056Z,2.10
2023-04-02T07:43:20.854Z,1.62
2023-04-02T07:46:14.170Z,3.25
2023-04-02T07:49:05.239Z,1.90
2023-04-02T07:51:56.295Z,1.75
2023-04-02T07:54:47.382Z,1.90
2023-04-02T07:57:44.247Z,1.60
2023-04-02T08:00:34.386Z,2.02
2023-04-02T08:03:26.922Z,1.42
2023-04-02T08:06:18.006Z,2.05
2023-04-02T08:09:09.246Z,2.05
2023-04-02T08:12:00.161Z,1.42
2023-04-02T08:14:53.589Z,1.30
2023-04-02T08:17:44.682Z,1.00
2023-04-02T08:20:35.978Z,1.75
2023-04-02T08:23:28.029Z,1.42
2023-04-02T08:26:20.580Z,1.07
2023-04-02T08:29:11.521Z,0.75
2023-04-02T08:32:03.214Z,1.35
2023-04-02T08:34:54.401Z,0.55
2023-04-02T08:37:45.827Z,0.53
2023-04-02T08:40:40.116Z,0.62
2023-04-02T08:43:45.057Z,0.33
2023-04-02T08:46:39.592Z,0.40
2023-04-02T08:49:34.406Z,0.40
2023-04-02T08:52:28.213Z,0.80
2023-04-02T08:55:26.958Z,1.67
2023-04-02T08:58:24.952Z,1.22
2023-04-02T09:01:23.287Z,1.75
2023-04-02T09:04:19.734Z,0.55
2023-04-02T09:07:15.284Z,0.70
2023-04-02T09:10:08.094Z,0.30
2023-04-02T09:13:00.998Z,1.17
2023-04-02T09:15:54.413Z,1.00
2023-04-02T09:18:47.326Z,0.42
2023-04-02T09:21:41.262Z,0.60
2023-04-02T09:24:32.548Z,0.35
2023-04-02T09:27:26.182Z,1.00
2023-04-02T09:33:06.477Z,0.50
2023-04-02T09:35:59.159Z,0.50
2023-04-02T09:39:06.929Z,0.57
2023-04-02T09:42:05.534Z,0.30
2023-04-02T09:44:50.363Z,0.53
2023-04-02T09:47:42.733Z,0.47
2023-04-02T09:50:35.790Z,0.50
2023-04-02T09:53:31.735Z,0.30
2023-04-02T09:56:24.718Z,0.35
2023-04-02T09:59:20.954Z,0.10
2023-04-02T10:02:23.334Z,0.30
2023-04-02T10:05:36.962Z,0.60
2023-04-02T10:08:29.124Z,0.13
2023-04-02T10:11:25.446Z,0.65
2023-04-02T10:14:21.309Z,0.28
2023-04-02T10:17:17.456Z,0.10
2023-04-02T10:20:14.624Z,0.45
2023-04-02T10:23:06.573Z,0.75
2023-04-02T10:26:01.580Z,0.20
2023-04-02T10:29:12.860Z,0.20
2023-04-02T10:32:08.982Z,0.23
2023-04-02T10:35:02.794Z,0.30
2023-04-02T10:38:09.116Z,0.20
2023-04-02T10:41:04.171Z,0.10
2023-04-02T10:44:38.557Z,0.55
2023-04-02T10:47:38.187Z,0.25
2023-04-02T10:50:35.991Z,0.20
2023-04-02T10:53:30.645Z,0.10
2023-04-02T10:56:23.750Z,0.20
2023-04-02T10:59:19.196Z,0.23
2023-04-02T11:02:20.566Z,3.00
2023-04-02T11:05:20.309Z,0.88
2023-04-02T11:10:57.167Z,0.20
2023-04-02T11:13:54.351Z,0.20
2023-04-02T11:16:46.243Z,0.57
2023-04-02T11:19:38.001Z,0.10
2023-04-02T11:22:29.230Z,0.10
2023-04-02T11:25:24.867Z,0.20
2023-04-02T11:28:28.798Z,0.30
2023-04-02T11:31:23.631Z,0.20
2023-04-02T11:34:38.886Z,0.45
2023-04-02T11:37:36.819Z,0.28
2023-04-02T11:40:51.854Z,0.17
2023-04-02T11:43:55.343Z,0.00
2023-04-02T11:46:47.623Z,0.20
2023-04-02T11:50:04.993Z,0.00
2023-04-02T11:52:59.888Z,0.28
2023-04-02T11:56:07.862Z,0.30
2023-04-02T11:59:07.348Z,0.25
2023-04-02T12:02:06.039Z,0.30
2023-04-02T12:05:17.926Z,0.28
2023-04-02T12:08:24.572Z,0.30
2023-04-02T12:11:16.477Z,0.25
2023-04-02T12:14:32.124Z,0.10
2023-04-02T12:17:33.315Z,0.10
2023-04-02T12:20:27.649Z,0.57
2023-04-02T12:23:22.489Z,0.10
2023-04-02T12:26:30.269Z,0.42
2023-04-02T12:29:29.262Z,1.00
2023-04-02T12:32:29.761Z,0.20
2023-04-02T12:35:33.639Z,0.57
2023-04-02T12:38:26.897Z,0.53
2023-04-02T12:41:27.407Z,1.17
2023-04-02T12:44:20.030Z,0.28
2023-04-02T12:47:14.602Z,0.65
2023-04-02T12:50:07.012Z,1.82
2023-04-02T12:52:59.701Z,0.62
2023-04-02T12:55:52.247Z,0.85
2023-04-02T12:58:44.261Z,0.70
2023-04-02T13:01:35.763Z,0.40
2023-04-02T13:04:27.165Z,1.22
2023-04-02T13:07:21.381Z,0.10
2023-04-02T13:10:27.806Z,0.40
2023-04-02T13:13:21.725Z,0.13
2023-04-02T13:16:30.082Z,0.13
2023-04-02T13:22:32.788Z,0.37
2023-04-02T13:25:29.676Z,0.57
2023-04-02T13:28:23.988Z,0.30
2023-04-02T13:31:21.082Z,0.20
2023-04-02T13:34:13.632Z,0.45
2023-04-02T13:37:08.700Z,0.20
2023-04-02T13:40:04.654Z,0.60
2023-04-02T13:42:59.207Z,1.72
2023-04-02T13:45:56.021Z,0.25
2023-04-02T13:48:59.370Z,0.20
2023-04-02T13:51:54.971Z,0.50
2023-04-02T13:54:55.298Z,0.50
2023-04-02T13:57:50.981Z,0.35
2023-04-02T14:00:51.218Z,0.47
2023-04-02T14:03:47.197Z,0.60
2023-04-02T14:07:08.411Z,0.28
2023-04-02T14:10:11.337Z,0.90
2023-04-02T14:13:25.442Z,0.50
2023-04-02T14:16:30.189Z,0.70
2023-04-02T14:19:34.912Z,1.12
2023-04-02T14:22:36.225Z,0.20
2023-04-02T14:25:35.786Z,0.30
2023-04-02T14:28:35.863Z,0.80
2023-04-02T14:31:34.435Z,0.25
2023-04-02T14:34:32.008Z,0.20
2023-04-02T14:37:28.816Z,0.40
2023-04-02T14:40:25.843Z,0.42
2023-04-02T14:43:21.516Z,0.33
2023-04-02T14:46:18.375Z,0.20
2023-04-02T14:49:17.463Z,0.30
2023-04-02T14:52:13.118Z,0.25
2023-04-02T14:55:08.162Z,1.32
2023-04-02T14:58:03.802Z,0.10
2023-04-02T15:03:37.437Z,0.50
2023-04-02T15:06:31.563Z,0.50
2023-04-02T15:09:26.235Z,0.35
2023-04-02T15:15:02.826Z,0.70
2023-04-02T15:17:53.857Z,0.23
2023-04-02T15:20:50.666Z,0.57
2023-04-02T15:23:49.385Z,0.85
2023-04-02T15:26:44.510Z,0.10
2023-04-02T15:29:42.325Z,0.40
2023-04-02T15:32:38.257Z,0.30
2023-04-02T15:35:35.968Z,1.45
2023-04-02T15:38:29.767Z,1.07
2023-04-02T15:41:25.428Z,0.20
2023-04-02T15:44:17.972Z,0.30
2023-04-02T15:47:11.792Z,0.20
2023-04-02T15:50:09.791Z,0.80
2023-04-02T15:53:03.990Z,0.90
2023-04-02T15:55:58.585Z,0.65
2023-04-02T15:59:03.296Z,0.30
2023-04-02T16:01:58.541Z,0.30
2023-04-02T16:04:54.465Z,1.12
2023-04-02T16:08:07.283Z,0.35
2023-04-02T16:10:58.635Z,0.20
2023-04-02T16:13:50.036Z,0.65
2023-04-02T16:16:43.701Z,0.30
2023-04-02T16:22:21.079Z,0.60
2023-04-02T16:25:19.444Z,0.30
2023-04-02T16:31:07.398Z,0.40
2023-04-02T16:34:05.479Z,0.70
2023-04-02T16:37:00.646Z,0.40
2023-04-02T16:39:55.733Z,2.05
2023-04-02T16:42:50.599Z,0.53
2023-04-02T16:45:45.565Z,0.45
2023-04-02T16:48:42.259Z,0.72
2023-04-02T16:51:37.288Z,0.30
2023-04-02T16:54:32.752Z,0.40
2023-04-02T16:57:32.055Z,0.40
2023-04-02T17:00:28.059Z,0.95
2023-04-02T17:03:32.966Z,0.75
2023-04-02T17:06:32.873Z,0.62
2023-04-02T17:09:28.938Z,0.40
2023-04-02T17:12:22.842Z,0.47
2023-04-02T17:15:27.751Z,0.85
2023-04-02T17:18:17.567Z,0.63
2023-04-02T17:21:12.584Z,0.73
2023-04-02T17:24:07.162Z,0.60
2023-04-02T17:27:01.843Z,1.12
2023-04-02T17:29:56.561Z,0.53
2023-04-02T17:32:48.142Z,1.50
2023-04-02T17:35:43.902Z,0.45
2023-04-02T17:38:38.497Z,0.65
2023-04-02T17:41:35.476Z,1.45
2023-04-02T17:44:46.033Z,0.45
2023-04-02T17:47:43.915Z,0.62
2023-04-02T17:50:52.151Z,1.85
2023-04-02T17:53:51.709Z,0.72
2023-04-02T17:56:54.550Z,1.47
2023-04-02T17:59:53.472Z,0.65
2023-04-02T18:05:56.309Z,1.75
2023-04-02T18:08:52.090Z,0.55
2023-04-02T18:11:53.446Z,0.82
2023-04-02T18:14:56.402Z,0.40
2023-04-02T18:17:53.047Z,0.35
2023-04-02T18:20:48.532Z,0.65
2023-04-02T18:23:44.672Z,0.30
2023-04-02T18:26:40.187Z,1.17
2023-04-02T18:29:37.379Z,0.65
2023-04-02T18:32:40.491Z,0.95
2023-04-02T18:35:35.526Z,0.33
2023-04-02T18:38:31.510Z,1.07
2023-04-02T18:41:31.607Z,0.35
2023-04-02T18:44:39.711Z,0.68
2023-04-02T18:47:35.483Z,0.20
2023-04-02T18:53:14.702Z,0.62
2023-04-02T18:56:09.680Z,1.37
2023-04-02T18:59:04.742Z,0.80
2023-04-02T19:01:57.780Z,0.98
2023-04-02T19:04:53.290Z,0.70
2023-04-02T19:07:46.744Z,0.90
2023-04-02T19:10:41.286Z,0.78
2023-04-02T19:13:32.790Z,1.02
2023-04-02T19:16:38.901Z,0.53
2023-04-02T19:19:31.876Z,1.70
2023-04-02T19:25:33.603Z,0.98
2023-04-02T19:28:27.979Z,0.60
2023-04-02T19:31:31.488Z,0.57
2023-04-02T19:34:26.960Z,0.37
2023-04-02T19:37:22.008Z,1.45
2023-04-02T19:40:25.020Z,0.70
2023-04-02T19:43:16.212Z,0.40
2023-04-02T19:46:07.486Z,1.02
2023-04-02T19:49:06.181Z,0.70
2023-04-02T19:51:58.328Z,0.80
2023-04-02T19:54:49.350Z,0.40
2023-04-02T19:57:40.774Z,0.90
2023-04-02T20:00:32.248Z,0.80
2023-04-02T20:03:23.744Z,1.52
2023-04-02T20:06:18.406Z,0.70
2023-04-02T20:09:09.670Z,0.40
2023-04-02T20:12:01.165Z,0.70
2023-04-02T20:14:52.342Z,0.50
2023-04-02T20:17:43.758Z,0.50
2023-04-02T20:20:35.399Z,1.57
2023-04-02T20:23:26.817Z,0.80
2023-04-02T20:26:18.099Z,2.25
2023-04-02T20:29:09.570Z,1.40
2023-04-02T20:32:00.732Z,1.32
2023-04-02T20:34:52.029Z,0.68
2023-04-02T20:37:43.472Z,0.65
2023-04-02T20:40:35.195Z,0.35
2023-04-02T20:43:28.473Z,0.65
2023-04-02T20:46:20.276Z,1.92
2023-04-02T20:51:52.970Z,0.90
2023-04-02T20:57:23.154Z,0.70
2023-04-02T21:00:16.017Z,0.42
2023-04-02T21:03:07.672Z,2.60
2023-04-02T21:05:59.561Z,0.30
2023-04-02T21:08:52.044Z,0.88
2023-04-02T21:11:43.979Z,0.25
2023-04-02T21:14:37.734Z,0.53
2023-04-02T21:17:29.396Z,0.30
2023-04-02T21:20:21.881Z,0.93
2023-04-02T21:23:13.286Z,0.30
2023-04-02T21:26:07.067Z,0.40
2023-04-02T21:31:40.195Z,0.20
2023-04-02T21:34:31.796Z,0.30
2023-04-02T21:37:23.268Z,0.42
2023-04-02T21:40:14.913Z,0.30
2023-04-02T21:43:06.634Z,0.70
2023-04-02T21:46:01.630Z,0.60
2023-04-02T21:48:54.240Z,0.40
2023-04-02T21:52:00.157Z,0.90
2023-04-02T21:55:12.314Z,0.50
2023-04-02T21:58:28.686Z,0.82
2023-04-02T22:01:27.441Z,0.33
2023-04-02T22:04:32.570Z,0.55
2023-04-02T22:07:26.999Z,0.30
2023-04-02T22:10:18.537Z,0.45
2023-04-02T22:13:10.114Z,0.80
2023-04-02T22:16:05.674Z,0.30
2023-04-02T22:19:01.105Z,0.40
2023-04-02T22:21:53.364Z,0.55
2023-04-02T22:24:44.730Z,1.25
2023-04-02T22:27:36.212Z,0.40
2023-04-02T22:30:29.305Z,0.78
2023-04-02T22:33:21.289Z,0.40
2023-04-02T22:36:16.258Z,0.50
2023-04-02T22:39:10.089Z,0.57
2023-04-02T22:42:01.603Z,0.60
2023-04-02T22:44:53.054Z,1.20
2023-04-02T22:47:44.666Z,0.90
2023-04-02T22:50:36.291Z,1.02
2023-04-02T22:53:29.348Z,0.30
2023-04-02T22:56:24.445Z,0.33
2023-04-02T22:59:15.784Z,0.40
2023-04-02T23:02:07.073Z,0.95
2023-04-02T23:04:58.481Z,0.60
2023-04-02T23:07:50.138Z,1.05
2023-04-02T23:10:41.446Z,0.30
2023-04-02T23:13:33.232Z,0.33
2023-04-02T23:16:27.051Z,0.40
2023-04-02T23:19:18.898Z,0.30
2023-04-02T23:22:10.549Z,0.40
2023-04-02T23:25:01.708Z,0.30
2023-04-02T23:27:52.916Z,0.25
2023-04-02T23:30:44.957Z,0.45
2023-04-02T23:33:36.335Z,0.40
2023-04-02T23:36:29.581Z,1.27
2023-04-02T23:39:22.514Z,0.28
2023-04-02T23:42:13.864Z,0.30
2023-04-02T23:45:05.583Z,0.53
2023-04-02T23:47:56.917Z,0.45
2023-04-02T23:50:48.175Z,0.20
2023-04-02T23:53:39.735Z,1.47
2023-04-02T23:56:30.757Z,0.37
2023-04-02T23:59:22.018Z,0.20
